Time;durP1;ratioP1;P1;durP2;ratioP2;P2;SDS_P1;SDS_P2;PMS_P1;PMS_P2;Temp;Humidity;BMP_temperature;BMP_pressure;BME280_temperature;BME280_humidity;BME280_pressure;Samples;Min_cycle;Max_cycle;Signal;HPM_P1;HPM_P2
2021/09/18 00:00:20;;;;;;;1.50;1.00;;;15.40;98.20;;;;;;5011397;28;20671;-78
2021/09/18 00:02:46;;;;;;;1.60;1.00;;;15.40;98.20;;;;;;5011653;28;20479;-79
2021/09/18 00:05:13;;;;;;;1.57;1.00;;;15.40;98.20;;;;;;5006007;28;20500;-77
2021/09/18 00:07:40;;;;;;;1.50;0.90;;;15.40;98.20;;;;;;5003482;28;20956;-78
2021/09/18 00:10:08;;;;;;;1.50;1.00;;;15.40;98.20;;;;;;5011526;28;20487;-77
2021/09/18 00:12:34;;;;;;;1.57;1.00;;;15.30;98.20;;;;;;5009123;28;20464;-79
2021/09/18 00:15:02;;;;;;;1.50;1.00;;;15.30;98.20;;;;;;5006180;28;20491;-78
2021/09/18 00:17:30;;;;;;;1.60;1.10;;;15.30;98.20;;;;;;5021236;28;20864;-77
2021/09/18 00:19:58;;;;;;;1.57;1.00;;;15.30;98.20;;;;;;5011707;28;20551;-79
2021/09/18 00:22:25;;;;;;;1.53;1.00;;;15.30;98.20;;;;;;5005833;28;20455;-79
2021/09/18 00:24:52;;;;;;;1.50;1.00;;;15.30;98.20;;;;;;5010779;28;20483;-79
2021/09/18 00:27:19;;;;;;;1.50;1.00;;;15.30;98.20;;;;;;5002788;28;20479;-78
2021/09/18 00:29:45;;;;;;;1.50;1.00;;;15.30;98.20;;;;;;5007050;28;20506;-76
2021/09/18 00:32:12;;;;;;;1.53;1.00;;;15.20;98.20;;;;;;5010989;28;20464;-79
2021/09/18 00:34:40;;;;;;;1.53;1.10;;;15.20;98.20;;;;;;5010442;28;20484;-78
2021/09/18 00:37:07;;;;;;;1.50;1.00;;;15.20;98.20;;;;;;5001423;28;20464;-78
2021/09/18 00:39:34;;;;;;;1.57;1.03;;;15.20;98.20;;;;;;5010490;28;20464;-77
2021/09/18 00:42:00;;;;;;;1.60;1.10;;;15.20;98.20;;;;;;5012171;28;20471;-78
2021/09/18 00:44:29;;;;;;;1.53;1.00;;;15.20;98.20;;;;;;5004339;28;20511;-78
2021/09/18 00:46:55;;;;;;;1.50;1.00;;;15.20;98.20;;;;;;5013749;28;20772;-78
2021/09/18 00:49:22;;;;;;;1.50;1.00;;;15.20;98.20;;;;;;5011107;28;20499;-78
2021/09/18 00:51:50;;;;;;;1.57;1.00;;;15.20;98.20;;;;;;5005956;28;20475;-78
2021/09/18 00:54:17;;;;;;;1.60;1.10;;;15.10;98.20;;;;;;5010812;28;20486;-78
2021/09/18 00:56:44;;;;;;;1.57;1.00;;;15.10;98.20;;;;;;5010142;28;20466;-76
2021/09/18 00:59:11;;;;;;;1.57;1.17;;;15.10;98.20;;;;;;5008151;28;20468;-77
2021/09/18 01:01:38;;;;;;;1.53;1.00;;;15.10;98.20;;;;;;5007641;28;20464;-78
2021/09/18 01:04:05;;;;;;;1.53;1.00;;;15.10;98.20;;;;;;5006123;28;20480;-78
2021/09/18 01:06:32;;;;;;;1.53;1.00;;;15.10;98.20;;;;;;5009942;28;20472;-77
2021/09/18 01:09:01;;;;;;;1.53;1.10;;;15.00;98.20;;;;;;5003526;28;20472;-79
2021/09/18 01:11:31;;;;;;;1.53;1.10;;;15.00;98.20;;;;;;5008442;28;20480;-79
2021/09/18 01:13:58;;;;;;;1.57;1.00;;;15.00;98.20;;;;;;5011946;28;20488;-78
2021/09/18 01:16:25;;;;;;;1.53;1.00;;;15.00;98.20;;;;;;5014897;28;20463;-78
2021/09/18 01:18:53;;;;;;;1.53;1.00;;;15.00;98.20;;;;;;5018281;28;20460;-79
2021/09/18 01:21:20;;;;;;;1.57;1.00;;;15.00;98.20;;;;;;5006929;28;20483;-78
2021/09/18 01:23:49;;;;;;;1.53;1.00;;;15.00;98.20;;;;;;5012023;28;20487;-79
2021/09/18 01:26:16;;;;;;;1.50;1.00;;;15.00;98.20;;;;;;5012179;28;20511;-79
2021/09/18 01:28:43;;;;;;;1.57;1.00;;;15.00;98.20;;;;;;5011476;28;20822;-79
2021/09/18 01:31:10;;;;;;;1.53;0.90;;;14.90;98.20;;;;;;5013946;28;20484;-79
2021/09/18 01:33:37;;;;;;;1.60;1.00;;;15.00;98.20;;;;;;5013132;28;20511;-79
2021/09/18 01:36:04;;;;;;;1.50;1.00;;;14.90;98.20;;;;;;5005614;28;20833;-79
2021/09/18 01:38:31;;;;;;;1.53;1.00;;;14.90;98.20;;;;;;5009119;28;20468;-79
2021/09/18 01:40:59;;;;;;;1.50;1.00;;;14.90;98.20;;;;;;5007337;28;20846;-79
2021/09/18 01:43:29;;;;;;;1.57;1.00;;;14.90;98.20;;;;;;5001405;28;20473;-79
2021/09/18 01:45:55;;;;;;;1.60;1.10;;;14.90;98.20;;;;;;5005726;28;20978;-79
2021/09/18 01:48:22;;;;;;;1.53;0.90;;;14.90;98.20;;;;;;5010279;28;20474;-80
2021/09/18 01:50:54;;;;;;;1.50;1.00;;;14.80;98.20;;;;;;5018121;28;20510;-78
2021/09/18 01:53:23;;;;;;;1.53;1.00;;;14.80;98.20;;;;;;5013670;28;20847;-77
2021/09/18 01:55:51;;;;;;;1.60;1.10;;;14.80;98.20;;;;;;5009248;28;20493;-78
2021/09/18 01:58:19;;;;;;;1.50;1.00;;;14.80;98.20;;;;;;5010202;28;20468;-78
2021/09/18 02:00:49;;;;;;;1.60;1.10;;;14.70;98.20;;;;;;5010132;28;20468;-77
2021/09/18 02:03:16;;;;;;;1.53;1.00;;;14.70;98.20;;;;;;5005434;28;20460;-79
2021/09/18 02:05:43;;;;;;;1.50;1.00;;;14.70;98.20;;;;;;5005560;28;20754;-77
2021/09/18 02:08:10;;;;;;;1.57;1.00;;;14.70;98.20;;;;;;5008955;28;20456;-78
2021/09/18 02:10:37;;;;;;;1.50;1.00;;;14.60;98.20;;;;;;5007772;28;20491;-78
2021/09/18 02:13:06;;;;;;;1.53;1.00;;;14.60;98.20;;;;;;5008379;28;20456;-79
2021/09/18 02:15:35;;;;;;;1.50;0.93;;;14.60;98.20;;;;;;5010044;28;20505;-79
2021/09/18 02:18:02;;;;;;;1.50;0.97;;;14.60;98.20;;;;;;5011196;28;20460;-79
2021/09/18 02:20:31;;;;;;;1.53;1.00;;;14.50;98.20;;;;;;5010975;28;20452;-79
2021/09/18 02:22:58;;;;;;;1.50;1.00;;;14.50;98.20;;;;;;5009710;28;20463;-78
2021/09/18 02:25:25;;;;;;;1.50;1.00;;;14.50;98.20;;;;;;5008412;28;21017;-79
2021/09/18 02:27:52;;;;;;;1.60;1.10;;;14.50;98.20;;;;;;5008006;28;20471;-78
2021/09/18 02:30:22;;;;;;;1.50;1.00;;;14.50;98.20;;;;;;5008996;28;20488;-79
2021/09/18 02:32:50;;;;;;;1.60;1.00;;;14.50;98.20;;;;;;5010230;28;20826;-79
2021/09/18 02:35:19;;;;;;;1.60;1.10;;;14.50;98.20;;;;;;5010007;28;20736;-78
2021/09/18 02:37:47;;;;;;;1.57;1.00;;;14.60;98.20;;;;;;5011974;28;20708;-77
2021/09/18 02:40:15;;;;;;;1.60;1.00;;;14.60;98.20;;;;;;5013707;28;20827;-78
2021/09/18 02:42:46;;;;;;;1.50;1.00;;;14.60;98.20;;;;;;5014298;28;20998;-77
2021/09/18 02:45:13;;;;;;;1.53;1.00;;;14.50;98.20;;;;;;5009962;28;20492;-79
2021/09/18 02:47:40;;;;;;;1.50;1.00;;;14.50;98.20;;;;;;5010917;28;20464;-77
2021/09/18 02:50:10;;;;;;;1.50;1.00;;;14.50;98.20;;;;;;5012648;28;20974;-78
2021/09/18 02:52:37;;;;;;;1.50;1.00;;;14.50;98.20;;;;;;5012053;28;20467;-78
2021/09/18 02:55:05;;;;;;;1.50;1.00;;;14.50;98.20;;;;;;5010878;28;20540;-78
2021/09/18 02:57:32;;;;;;;1.50;1.00;;;14.50;98.20;;;;;;5031939;23;20479;-80
2021/09/18 02:59:59;;;;;;;1.50;1.10;;;14.50;98.20;;;;;;5004920;28;20461;-80
2021/09/18 03:02:25;;;;;;;1.53;1.10;;;14.50;98.20;;;;;;5012030;28;20475;-80
2021/09/18 03:04:52;;;;;;;1.50;1.00;;;14.50;98.20;;;;;;5013654;28;20464;-80
2021/09/18 03:07:20;;;;;;;1.50;1.00;;;14.50;98.20;;;;;;5002907;28;20480;-80
2021/09/18 03:09:47;;;;;;;1.57;1.10;;;14.50;98.20;;;;;;5005299;28;20468;-80
2021/09/18 03:12:14;;;;;;;1.60;1.13;;;14.50;98.20;;;;;;5006688;28;20474;-80
2021/09/18 03:14:40;;;;;;;1.57;1.10;;;14.50;98.20;;;;;;5013642;28;20472;-80
2021/09/18 03:17:07;;;;;;;1.50;1.00;;;14.40;98.20;;;;;;5014333;28;20490;-80
2021/09/18 03:19:34;;;;;;;1.57;1.07;;;14.40;98.20;;;;;;5013983;28;20468;-81
2021/09/18 03:22:01;;;;;;;1.57;1.00;;;14.40;98.20;;;;;;5006356;28;20461;-81
2021/09/18 03:24:29;;;;;;;1.57;1.00;;;14.40;98.20;;;;;;5006001;28;20468;-81
2021/09/18 03:26:56;;;;;;;1.53;1.03;;;14.30;98.20;;;;;;5006402;28;20722;-81
2021/09/18 03:29:24;;;;;;;1.57;1.00;;;14.30;98.20;;;;;;5005456;28;20961;-81
2021/09/18 03:31:51;;;;;;;1.53;1.00;;;14.30;98.20;;;;;;5020493;28;20554;-84
2021/09/18 03:34:18;;;;;;;1.53;1.10;;;14.20;98.20;;;;;;5015460;28;20461;-84
2021/09/18 03:36:44;;;;;;;1.60;1.10;;;14.20;98.20;;;;;;5011971;28;20543;-83
2021/09/18 03:39:11;;;;;;;1.57;1.00;;;14.20;98.20;;;;;;5016058;28;20583;-84
2021/09/18 03:41:40;;;;;;;1.97;1.77;;;14.20;98.20;;;;;;5010876;28;20460;-84
2021/09/18 03:44:06;;;;;;;1.50;1.00;;;14.20;98.20;;;;;;5016142;28;20476;-83
2021/09/18 03:46:33;;;;;;;1.53;1.00;;;14.20;98.20;;;;;;5015197;28;20489;-83
2021/09/18 03:49:00;;;;;;;1.50;1.00;;;14.20;98.20;;;;;;5018353;28;20464;-83
2021/09/18 03:51:26;;;;;;;1.60;1.10;;;14.20;98.20;;;;;;5018424;28;20524;-83
2021/09/18 03:53:53;;;;;;;1.53;1.00;;;14.20;98.20;;;;;;5013821;28;20460;-83
2021/09/18 03:56:20;;;;;;;1.57;1.00;;;14.20;98.20;;;;;;5014590;28;20475;-83
2021/09/18 03:58:48;;;;;;;1.50;1.00;;;14.20;98.20;;;;;;5018973;28;20464;-82
2021/09/18 04:01:16;;;;;;;1.50;0.90;;;14.20;98.20;;;;;;5002691;28;20562;-82
2021/09/18 04:03:43;;;;;;;1.53;1.10;;;14.20;98.20;;;;;;5007828;28;20849;-81
2021/09/18 04:06:13;;;;;;;1.53;1.00;;;14.20;98.20;;;;;;5007548;28;20475;-82
2021/09/18 04:08:39;;;;;;;1.53;1.00;;;14.20;98.20;;;;;;5005085;28;20473;-82
2021/09/18 04:11:06;;;;;;;1.53;1.10;;;14.10;98.20;;;;;;5002402;28;20497;-81
2021/09/18 04:13:35;;;;;;;1.60;1.10;;;14.10;98.20;;;;;;5008037;28;21255;-81
2021/09/18 04:16:07;;;;;;;1.50;1.00;;;14.10;98.20;;;;;;5011428;28;20472;-81
2021/09/18 04:18:41;;;;;;;1.53;1.10;;;14.10;98.20;;;;;;5007584;28;20472;-82
2021/09/18 04:21:09;;;;;;;1.50;1.00;;;14.10;98.20;;;;;;5011688;28;20484;-82
2021/09/18 04:23:36;;;;;;;1.50;1.00;;;14.10;98.20;;;;;;5008820;28;20547;-82
2021/09/18 04:26:03;;;;;;;1.53;1.00;;;14.10;98.20;;;;;;5010313;28;20978;-82
2021/09/18 04:28:41;;;;;;;1.50;1.10;;;14.00;98.20;;;;;;5003275;28;20861;-82
2021/09/18 04:31:09;;;;;;;1.57;1.00;;;14.00;98.20;;;;;;5014075;28;20591;-82
2021/09/18 04:33:36;;;;;;;1.57;1.10;;;14.00;98.20;;;;;;5007245;28;20478;-82
2021/09/18 04:36:03;;;;;;;1.53;1.07;;;14.00;98.20;;;;;;5005872;28;20547;-82
2021/09/18 04:38:33;;;;;;;1.53;1.00;;;14.00;98.20;;;;;;5007872;28;20496;-82
2021/09/18 04:41:00;;;;;;;1.57;1.00;;;14.00;98.20;;;;;;5011073;28;20472;-82
2021/09/18 04:43:27;;;;;;;1.50;1.00;;;14.00;98.20;;;;;;5011832;28;20468;-82
2021/09/18 04:45:53;;;;;;;1.50;1.00;;;14.00;98.20;;;;;;5010314;28;20465;-82
2021/09/18 04:48:22;;;;;;;1.57;1.00;;;14.00;98.20;;;;;;5006099;28;20497;-82
2021/09/18 04:50:49;;;;;;;1.60;1.10;;;13.90;98.20;;;;;;5006350;28;20500;-82
2021/09/18 04:53:16;;;;;;;1.53;1.00;;;13.90;98.20;;;;;;5008181;28;20461;-82
2021/09/18 04:55:45;;;;;;;1.50;0.90;;;13.90;98.20;;;;;;5006278;28;20463;-82
2021/09/18 04:58:12;;;;;;;1.50;1.00;;;13.90;98.20;;;;;;5006207;28;20496;-82
2021/09/18 05:00:39;;;;;;;2.23;2.03;;;13.90;98.20;;;;;;5011305;28;20537;-82
2021/09/18 05:03:13;;;;;;;1.60;1.10;;;13.90;98.20;;;;;;5011953;28;20475;-82
2021/09/18 05:05:43;;;;;;;1.77;1.67;;;13.90;98.20;;;;;;5008991;28;20980;-82
2021/09/18 05:08:10;;;;;;;1.53;1.10;;;13.90;98.20;;;;;;5008521;28;20483;-82
2021/09/18 05:10:37;;;;;;;1.53;1.00;;;13.90;98.20;;;;;;5001031;28;20551;-82
2021/09/18 05:13:06;;;;;;;1.60;1.10;;;13.90;98.20;;;;;;5011858;28;20831;-82
2021/09/18 05:15:33;;;;;;;1.50;1.07;;;13.90;98.20;;;;;;5009418;28;20476;-82
2021/09/18 05:17:59;;;;;;;1.53;1.10;;;13.90;98.20;;;;;;5004828;28;20846;-83
2021/09/18 05:20:39;;;;;;;1.60;1.20;;;13.90;98.20;;;;;;5012033;28;20479;-83
2021/09/18 05:23:13;;;;;;;1.50;1.00;;;13.90;98.20;;;;;;4999906;28;20848;-83
2021/09/18 05:25:40;;;;;;;1.57;1.00;;;13.90;98.20;;;;;;5005306;28;20464;-83
2021/09/18 05:28:07;;;;;;;1.50;1.00;;;13.90;98.20;;;;;;5006420;28;20494;-83
2021/09/18 05:30:34;;;;;;;1.60;1.00;;;13.90;98.20;;;;;;5008744;28;20500;-83
2021/09/18 05:33:00;;;;;;;1.50;1.00;;;13.90;98.20;;;;;;5008170;28;20486;-83
2021/09/18 05:35:27;;;;;;;1.50;1.00;;;13.90;98.20;;;;;;5006152;28;20472;-83
2021/09/18 05:37:55;;;;;;;1.57;1.00;;;13.90;98.20;;;;;;5005393;28;20542;-83
2021/09/18 05:40:26;;;;;;;1.50;1.00;;;13.90;98.20;;;;;;5011975;28;20493;-83
2021/09/18 05:42:56;;;;;;;1.53;1.00;;;13.90;98.20;;;;;;5011422;28;20460;-83
2021/09/18 05:45:26;;;;;;;1.50;1.10;;;13.90;98.20;;;;;;5014814;28;20468;-83
2021/09/18 05:47:56;;;;;;;1.50;1.00;;;13.90;98.20;;;;;;5005708;28;20564;-84
2021/09/18 05:50:26;;;;;;;1.50;1.00;;;14.00;98.20;;;;;;5010586;28;21034;-83
2021/09/18 05:52:56;;;;;;;1.53;1.00;;;14.00;98.20;;;;;;5011800;28;20483;-83
2021/09/18 05:55:24;;;;;;;1.50;1.00;;;14.00;98.20;;;;;;5005852;28;20559;-83
2021/09/18 05:57:51;;;;;;;1.53;1.00;;;14.10;98.20;;;;;;5012627;28;20502;-83
2021/09/18 06:00:18;;;;;;;1.57;1.00;;;14.10;98.20;;;;;;5014732;28;21021;-83
2021/09/18 06:02:47;;;;;;;1.60;1.07;;;14.10;98.20;;;;;;5008487;28;20464;-83
2021/09/18 06:05:17;;;;;;;1.60;1.10;;;14.20;98.20;;;;;;5012273;28;20474;-84
2021/09/18 06:07:46;;;;;;;1.50;1.00;;;14.20;98.20;;;;;;5001015;28;20536;-83
2021/09/18 06:10:22;;;;;;;1.57;1.10;;;14.20;98.20;;;;;;5012967;28;20469;-83
2021/09/18 06:12:54;;;;;;;1.60;1.00;;;14.30;98.20;;;;;;5010960;28;20488;-83
2021/09/18 06:15:31;;;;;;;1.53;1.00;;;14.40;98.20;;;;;;5012622;28;20472;-83
2021/09/18 06:18:10;;;;;;;1.57;1.00;;;14.40;98.20;;;;;;5016826;28;20484;-83
2021/09/18 06:20:37;;;;;;;1.60;1.00;;;14.50;98.20;;;;;;5017195;28;20470;-83
2021/09/18 06:23:16;;;;;;;1.53;1.00;;;14.50;98.20;;;;;;5008475;28;20468;-82
2021/09/18 06:25:43;;;;;;;1.60;1.00;;;14.50;98.20;;;;;;5011348;28;20467;-83
2021/09/18 06:28:20;;;;;;;1.50;1.00;;;14.60;98.20;;;;;;5007084;28;20483;-83
2021/09/18 06:34:05;;;;;;;1.53;1.00;;;14.80;98.20;;;;;;4878759;29;20465;-83
2021/09/18 06:36:33;;;;;;;1.57;1.10;;;14.90;98.20;;;;;;4956437;28;20489;-83
2021/09/18 06:39:08;;;;;;;1.50;1.00;;;15.00;98.20;;;;;;5008674;28;20519;-83
2021/09/18 06:41:46;;;;;;;1.57;1.00;;;15.10;98.20;;;;;;5016337;28;20470;-83
2021/09/18 06:44:14;;;;;;;1.57;1.00;;;15.20;98.20;;;;;;5011020;28;20578;-83
2021/09/18 06:46:47;;;;;;;1.57;1.00;;;15.30;98.20;;;;;;5008420;28;20484;-84
2021/09/18 06:49:36;;;;;;;1.57;1.00;;;15.40;98.20;;;;;;5009489;28;20520;-82
2021/09/18 06:52:11;;;;;;;1.53;1.00;;;15.50;98.20;;;;;;5015883;28;20489;-83
2021/09/18 06:54:44;;;;;;;1.50;1.00;;;15.60;98.20;;;;;;5009814;28;20495;-83
2021/09/18 06:57:26;;;;;;;1.53;0.90;;;15.70;98.20;;;;;;5007525;28;20507;-83
2021/09/18 07:00:00;;;;;;;1.50;0.90;;;15.90;98.20;;;;;;5014136;28;20467;-83
2021/09/18 07:02:32;;;;;;;1.50;1.00;;;16.00;98.20;;;;;;5016610;28;20809;-83
2021/09/18 07:05:00;;;;;;;1.50;1.00;;;16.10;98.20;;;;;;5013796;28;20525;-83
2021/09/18 07:07:29;;;;;;;1.50;1.00;;;16.30;98.20;;;;;;5005170;28;20480;-83
2021/09/18 07:10:01;;;;;;;1.50;1.00;;;16.40;98.20;;;;;;5012057;28;20456;-83
2021/09/18 07:12:40;;;;;;;1.57;1.00;;;16.50;98.20;;;;;;5008487;28;20495;-83
2021/09/18 07:15:11;;;;;;;1.60;1.17;;;16.60;98.20;;;;;;5010047;28;20776;-83
2021/09/18 07:17:45;;;;;;;1.50;1.00;;;16.70;98.20;;;;;;5020563;28;20498;-83
2021/09/18 07:20:29;;;;;;;1.50;0.90;;;16.80;98.20;;;;;;5016278;28;20491;-83
2021/09/18 07:23:13;;;;;;;1.53;0.90;;;16.90;98.20;;;;;;5008726;28;20453;-81
2021/09/18 07:25:42;;;;;;;1.53;0.90;;;16.90;98.20;;;;;;5014603;28;20493;-83
2021/09/18 07:28:11;;;;;;;1.50;1.00;;;17.10;98.20;;;;;;5011875;28;20480;-83
2021/09/18 07:30:41;;;;;;;1.53;1.00;;;17.20;98.20;;;;;;5009234;28;21264;-82
2021/09/18 07:33:21;;;;;;;1.53;0.90;;;17.40;98.20;;;;;;5010818;28;20530;-83
2021/09/18 07:35:56;;;;;;;1.53;0.90;;;17.50;98.20;;;;;;5008752;28;20473;-83
2021/09/18 07:41:11;;;;;;;1.50;1.00;;;17.70;98.20;;;;;;5002633;28;20469;-82
2021/09/18 07:43:38;;;;;;;1.60;1.10;;;17.80;98.20;;;;;;5012658;28;20479;-82
2021/09/18 07:46:10;;;;;;;1.53;1.00;;;17.80;98.20;;;;;;5008034;28;20536;-82
2021/09/18 07:48:37;;;;;;;1.50;1.00;;;17.90;98.20;;;;;;4997985;28;20461;-82
2021/09/18 07:51:10;;;;;;;1.53;1.00;;;17.90;98.20;;;;;;5009892;28;20468;-82
2021/09/18 07:53:39;;;;;;;1.57;0.90;;;17.90;98.20;;;;;;5002590;28;20461;-82
2021/09/18 07:56:08;;;;;;;1.50;0.90;;;18.00;98.20;;;;;;5005393;28;20590;-82
2021/09/18 07:58:38;;;;;;;1.53;0.90;;;18.00;98.20;;;;;;5009524;28;20464;-82
2021/09/18 08:01:33;;;;;;;1.53;0.97;;;18.10;98.20;;;;;;5000135;28;20482;-85
2021/09/18 08:04:03;;;;;;;1.57;0.90;;;18.30;98.20;;;;;;4998235;28;20464;-83
2021/09/18 08:06:31;;;;;;;1.57;0.90;;;18.40;98.20;;;;;;5009125;28;20488;-84
2021/09/18 08:08:59;;;;;;;1.60;1.00;;;18.50;98.20;;;;;;5000454;28;20545;-84
2021/09/18 08:11:41;;;;;;;1.50;0.90;;;18.70;98.20;;;;;;5007459;28;20463;-84
2021/09/18 08:14:08;;;;;;;1.53;1.00;;;18.70;98.20;;;;;;5005895;28;20463;-84
2021/09/18 08:16:39;;;;;;;1.53;0.90;;;18.80;98.20;;;;;;5010585;28;20914;-83
2021/09/18 08:19:07;;;;;;;1.53;0.90;;;18.90;98.20;;;;;;5000975;28;20628;-83
2021/09/18 08:21:39;;;;;;;1.50;0.93;;;19.00;98.20;;;;;;4996948;28;20461;-83
2021/09/18 08:24:18;;;;;;;1.50;0.90;;;19.20;98.20;;;;;;5001814;28;20515;-84
2021/09/18 08:26:56;;;;;;;1.53;0.90;;;19.30;98.20;;;;;;5004557;28;20475;-84
2021/09/18 08:29:23;;;;;;;1.60;1.10;;;19.40;98.20;;;;;;5005567;28;20464;-84
2021/09/18 08:31:55;;;;;;;1.53;0.90;;;19.50;98.20;;;;;;5008042;28;20805;-84
2021/09/18 08:34:29;;;;;;;1.57;0.90;;;19.60;98.20;;;;;;5005579;28;20492;-84
2021/09/18 08:36:56;;;;;;;1.53;0.90;;;19.60;98.20;;;;;;5003671;28;20495;-83
2021/09/18 08:39:29;;;;;;;1.50;0.90;;;19.60;98.20;;;;;;5008969;28;20470;-84
2021/09/18 08:41:59;;;;;;;1.53;0.90;;;19.70;98.20;;;;;;5007473;28;20887;-83
2021/09/18 08:44:26;;;;;;;1.53;0.90;;;19.80;98.20;;;;;;5015781;28;20463;-84
2021/09/18 08:47:02;;;;;;;1.53;0.90;;;20.00;98.20;;;;;;5027143;28;20813;-84
2021/09/18 08:49:35;;;;;;;1.60;1.00;;;20.10;98.20;;;;;;5022607;28;20723;-83
2021/09/18 08:52:11;;;;;;;1.57;0.90;;;20.20;98.20;;;;;;5022834;28;20485;-84
2021/09/18 08:54:42;;;;;;;1.50;0.93;;;20.40;98.20;;;;;;5018410;28;20972;-84
2021/09/18 08:57:11;;;;;;;1.60;1.10;;;20.60;98.20;;;;;;5000399;28;20578;-83
2021/09/18 09:00:02;;;;;;;1.50;0.90;;;20.70;98.20;;;;;;4997331;28;20500;-83
2021/09/18 09:02:33;;;;;;;1.50;0.90;;;20.70;98.20;;;;;;4996831;28;20981;-83
2021/09/18 09:05:08;;;;;;;1.57;0.90;;;20.80;98.20;;;;;;5008597;28;21030;-83
2021/09/18 09:07:40;;;;;;;1.50;0.90;;;20.90;98.20;;;;;;4996246;28;20509;-83
2021/09/18 09:10:30;;;;;;;1.53;0.90;;;21.10;98.20;;;;;;5003847;28;20488;-84
2021/09/18 09:13:08;;;;;;;1.53;0.90;;;21.10;98.20;;;;;;5012761;28;20544;-83
2021/09/18 09:15:37;;;;;;;1.50;0.90;;;21.10;98.20;;;;;;4997696;28;20469;-83
2021/09/18 09:18:28;;;;;;;1.50;0.90;;;21.20;98.20;;;;;;5002192;28;20519;-83
2021/09/18 09:21:13;;;;;;;1.50;0.90;;;21.30;98.00;;;;;;5003217;28;20464;-83
2021/09/18 09:23:46;;;;;;;1.60;1.20;;;21.50;98.20;;;;;;5008184;28;20467;-83
2021/09/18 09:26:26;;;;;;;1.50;0.90;;;21.60;98.20;;;;;;5010161;28;21150;-81
2021/09/18 09:28:55;;;;;;;1.53;0.90;;;21.70;97.90;;;;;;5001157;28;20487;-81
2021/09/18 09:31:27;;;;;;;1.57;1.00;;;21.80;97.90;;;;;;5003689;28;20467;-81
2021/09/18 09:34:12;;;;;;;1.50;0.90;;;21.90;97.00;;;;;;5009051;28;20511;-80
2021/09/18 09:36:45;;;;;;;1.80;1.30;;;21.90;97.60;;;;;;5005224;28;20507;-80
2021/09/18 09:39:16;;;;;;;2.03;1.83;;;21.90;97.00;;;;;;5004608;28;20915;-80
2021/09/18 09:41:48;;;;;;;1.53;0.90;;;21.90;97.10;;;;;;5006351;28;20918;-80
2021/09/18 09:44:16;;;;;;;1.50;0.90;;;22.00;97.10;;;;;;4998723;28;20507;-80
2021/09/18 09:47:00;;;;;;;1.50;0.90;;;22.10;97.10;;;;;;4999375;28;20479;-79
2021/09/18 09:49:43;;;;;;;1.50;0.90;;;22.20;96.40;;;;;;4999040;28;20571;-80
2021/09/18 09:52:24;;;;;;;1.50;0.90;;;22.30;95.80;;;;;;4996030;28;20503;-79
2021/09/18 09:54:54;;;;;;;1.50;0.90;;;22.40;95.50;;;;;;5004501;28;20464;-80
2021/09/18 09:57:22;;;;;;;1.60;1.20;;;22.40;96.20;;;;;;5007363;28;20492;-80
2021/09/18 09:59:49;;;;;;;1.50;0.90;;;22.40;95.00;;;;;;5000581;28;20567;-80
2021/09/18 10:02:16;;;;;;;1.53;0.90;;;22.40;94.90;;;;;;5003932;28;20486;-80
2021/09/18 10:04:47;;;;;;;1.53;0.90;;;22.50;96.60;;;;;;5002951;28;20479;-80
2021/09/18 10:07:15;;;;;;;1.50;0.90;;;22.60;95.80;;;;;;5006957;28;20481;-83
2021/09/18 10:09:43;;;;;;;1.50;0.90;;;22.60;94.80;;;;;;5007873;28;20474;-81
2021/09/18 10:12:13;;;;;;;1.50;0.90;;;22.70;95.00;;;;;;5005945;28;20575;-80
2021/09/18 10:14:46;;;;;;;1.50;0.90;;;22.80;94.40;;;;;;5004173;28;20530;-80
2021/09/18 10:17:13;;;;;;;1.50;0.90;;;22.90;94.20;;;;;;5004951;28;20485;-81
2021/09/18 10:20:01;;;;;;;1.50;0.90;;;22.90;93.50;;;;;;5011154;28;20460;-81
2021/09/18 10:25:20;;;;;;;1.60;0.90;;;23.10;93.70;;;;;;5007169;28;20640;-80
2021/09/18 10:28:12;;;;;;;1.50;0.90;;;23.20;92.10;;;;;;5006681;28;20488;-81
2021/09/18 10:30:42;;;;;;;1.50;0.90;;;23.30;91.80;;;;;;5003345;28;21211;-80
2021/09/18 10:33:31;;;;;;;1.57;0.90;;;23.30;90.10;;;;;;5012730;28;20563;-81
2021/09/18 10:36:02;;;;;;;1.60;1.00;;;23.30;86.40;;;;;;5004785;28;20486;-80
2021/09/18 10:38:32;;;;;;;1.50;0.90;;;23.40;89.50;;;;;;5001346;28;20511;-80
2021/09/18 10:41:03;;;;;;;1.50;0.90;;;23.50;88.50;;;;;;5007880;28;20567;-80
2021/09/18 10:43:35;;;;;;;1.50;0.90;;;23.50;89.60;;;;;;5008483;28;20456;-81
2021/09/18 10:46:09;;;;;;;1.50;0.90;;;23.60;89.20;;;;;;5000333;28;20487;-80
2021/09/18 10:48:46;;;;;;;1.60;1.00;;;23.70;89.40;;;;;;4992300;28;20467;-79
2021/09/18 10:51:34;;;;;;;1.53;0.90;;;23.80;89.60;;;;;;5000810;28;20566;-80
2021/09/18 10:54:14;;;;;;;1.50;0.87;;;23.80;89.60;;;;;;4997278;28;21158;-78
2021/09/18 10:57:06;;;;;;;1.57;0.90;;;23.80;88.00;;;;;;5000398;28;20496;-79
2021/09/18 10:59:48;;;;;;;1.50;0.87;;;23.80;88.60;;;;;;5001181;28;20497;-79
2021/09/18 11:02:45;;;;;;;1.50;0.90;;;23.90;87.50;;;;;;5010932;28;20522;-80
2021/09/18 11:05:57;;;;;;;1.50;0.90;;;23.90;86.70;;;;;;5008544;28;20522;-79
2021/09/18 11:08:38;;;;;;;1.50;0.90;;;24.00;87.50;;;;;;5001818;28;21070;-81
2021/09/18 11:11:12;;;;;;;1.50;0.90;;;24.10;89.10;;;;;;5004502;28;20476;-80
2021/09/18 11:13:44;;;;;;;1.50;0.90;;;24.30;87.80;;;;;;5004309;28;20834;-80
2021/09/18 11:16:26;;;;;;;1.50;0.90;;;24.30;87.50;;;;;;5006151;28;20472;-80
2021/09/18 11:18:58;;;;;;;1.50;0.90;;;24.50;87.90;;;;;;5004152;28;20472;-79
2021/09/18 11:21:27;;;;;;;1.50;0.90;;;24.50;86.60;;;;;;5004517;28;20913;-79
2021/09/18 11:23:56;;;;;;;1.50;0.90;;;24.60;86.70;;;;;;5003092;28;20912;-79
2021/09/18 11:26:55;;;;;;;1.53;0.90;;;24.60;85.90;;;;;;5008589;28;20530;-80
2021/09/18 11:29:37;;;;;;;1.50;0.90;;;24.50;84.90;;;;;;4997616;28;20464;-80
2021/09/18 11:32:15;;;;;;;1.50;0.90;;;24.50;86.10;;;;;;4999540;28;20547;-80
2021/09/18 11:34:55;;;;;;;1.50;0.90;;;24.60;84.20;;;;;;5006576;28;20994;-80
2021/09/18 11:37:28;;;;;;;1.50;0.80;;;24.70;86.50;;;;;;5003481;28;20488;-80
2021/09/18 11:40:04;;;;;;;1.50;0.90;;;24.90;86.00;;;;;;4995488;28;20526;-79
2021/09/18 11:42:37;;;;;;;1.50;0.90;;;25.00;84.20;;;;;;5007322;28;20565;-80
2021/09/18 11:45:10;;;;;;;2.27;1.87;;;25.00;84.00;;;;;;5009002;28;20495;-80
2021/09/18 11:47:44;;;;;;;1.50;0.80;;;25.00;84.00;;;;;;5002694;28;20509;-80
2021/09/18 11:50:26;;;;;;;1.53;0.90;;;25.00;84.60;;;;;;4999244;28;20464;-80
2021/09/18 11:52:57;;;;;;;1.57;0.90;;;25.00;83.10;;;;;;4999066;28;20514;-80
2021/09/18 11:55:31;;;;;;;1.50;0.90;;;25.10;84.40;;;;;;4990501;28;20809;-77
2021/09/18 11:58:22;;;;;;;1.50;0.90;;;25.20;83.40;;;;;;4997722;28;20498;-77
2021/09/18 12:00:58;;;;;;;1.50;0.90;;;25.40;83.70;;;;;;4994111;28;20469;-80
2021/09/18 12:03:31;;;;;;;1.50;0.90;;;25.60;84.30;;;;;;4997926;28;20627;-80
2021/09/18 12:06:02;;;;;;;1.53;0.90;;;25.70;82.50;;;;;;5000651;28;20503;-80
2021/09/18 12:08:37;;;;;;;1.60;0.90;;;25.80;81.80;;;;;;4999689;28;20522;-80
2021/09/18 12:11:12;;;;;;;1.50;0.90;;;25.80;82.90;;;;;;5006127;28;20494;-79
2021/09/18 12:13:48;;;;;;;1.50;0.80;;;25.80;83.50;;;;;;5005707;28;20488;-80
2021/09/18 12:16:18;;;;;;;1.50;0.90;;;25.90;83.50;;;;;;4998612;28;20958;-79
2021/09/18 12:18:48;;;;;;;1.50;0.90;;;26.00;82.90;;;;;;5004084;28;20571;-79
2021/09/18 12:21:18;;;;;;;1.50;0.90;;;26.00;82.50;;;;;;5006626;28;20471;-79
2021/09/18 12:23:47;;;;;;;1.57;0.90;;;26.10;81.10;;;;;;5001006;28;20468;-79
2021/09/18 12:26:16;;;;;;;1.50;0.90;;;26.00;80.90;;;;;;5004541;28;21011;-79
2021/09/18 12:28:48;;;;;;;1.97;1.77;;;25.90;81.00;;;;;;4995484;28;20511;-81
2021/09/18 12:31:19;;;;;;;1.60;1.20;;;26.00;81.50;;;;;;4999969;28;20475;-80
2021/09/18 12:33:54;;;;;;;1.53;0.90;;;26.00;79.70;;;;;;5007174;28;20491;-80
2021/09/18 12:36:25;;;;;;;1.50;0.90;;;25.90;80.20;;;;;;5004790;28;20716;-80
2021/09/18 12:39:06;;;;;;;1.50;0.80;;;25.80;81.40;;;;;;5005739;28;20766;-80
2021/09/18 12:41:47;;;;;;;1.50;0.90;;;25.70;81.30;;;;;;5006732;28;20495;-80
2021/09/18 12:44:20;;;;;;;1.50;0.90;;;25.60;80.30;;;;;;5003894;28;20460;-80
2021/09/18 12:46:55;;;;;;;1.50;0.90;;;25.50;82.10;;;;;;5010333;28;20487;-81
2021/09/18 12:49:25;;;;;;;1.50;0.90;;;25.40;81.40;;;;;;5003767;28;20468;-77
2021/09/18 12:52:15;;;;;;;1.50;0.90;;;25.20;81.00;;;;;;4998914;28;20852;-78
2021/09/18 12:54:51;;;;;;;1.50;0.80;;;25.20;82.10;;;;;;4998153;28;20500;-78
2021/09/18 12:57:22;;;;;;;1.50;0.90;;;25.50;83.70;;;;;;4980936;28;20488;-77
2021/09/18 12:59:53;;;;;;;1.50;0.83;;;25.80;82.40;;;;;;5004506;28;20559;-77
2021/09/18 13:02:21;;;;;;;1.50;0.90;;;25.90;80.70;;;;;;5007169;28;20567;-78
2021/09/18 13:04:53;;;;;;;1.50;0.90;;;25.90;81.00;;;;;;5007560;28;20479;-78
2021/09/18 13:07:27;;;;;;;1.50;0.90;;;25.90;81.30;;;;;;4997497;28;20947;-79
2021/09/18 13:10:04;;;;;;;1.50;0.90;;;25.70;80.50;;;;;;5003370;28;20464;-78
2021/09/18 13:12:42;;;;;;;1.50;0.90;;;25.40;81.40;;;;;;5007822;28;21026;-78
2021/09/18 13:15:22;;;;;;;1.50;0.90;;;25.20;81.70;;;;;;5012509;28;20966;-79
2021/09/18 13:17:56;;;;;;;1.50;0.90;;;25.00;83.50;;;;;;5009332;28;21153;-79